createdAt,value
2022-10-18T00:06:53.728Z,14.83
2022-10-18T00:14:28.674Z,14.85
2022-10-18T00:22:02.361Z,14.86
2022-10-18T00:29:37.400Z,14.86
2022-10-18T00:37:10.953Z,14.86
2022-10-18T00:45:16.184Z,14.84
2022-10-18T00:52:55.196Z,14.85
2022-10-18T01:00:30.223Z,14.84
2022-10-18T01:08:12.589Z,14.83
2022-10-18T01:23:52.265Z,14.79
2022-10-18T01:31:33.073Z,14.78
2022-10-18T01:39:10.416Z,14.75
2022-10-18T01:46:47.155Z,14.75
2022-10-18T01:54:25.667Z,14.74
2022-10-18T02:02:08.453Z,14.75
2022-10-18T02:09:50.483Z,14.76
2022-10-18T02:17:30.145Z,14.77
2022-10-18T02:25:09.865Z,14.78
2022-10-18T02:32:50.426Z,14.82
2022-10-18T02:40:24.415Z,14.94
2022-10-18T02:48:00.604Z,15.23
2022-10-18T02:55:34.680Z,15.47
2022-10-18T03:03:09.836Z,15.62
2022-10-18T03:10:44.500Z,15.66
2022-10-18T03:18:19.614Z,15.63
2022-10-18T03:25:53.383Z,15.68
2022-10-18T03:33:28.409Z,15.69
2022-10-18T03:41:01.942Z,15.69
2022-10-18T03:48:37.885Z,15.69
2022-10-18T03:56:11.541Z,15.69
2022-10-18T04:03:46.727Z,15.69
2022-10-18T04:11:20.390Z,15.64
2022-10-18T04:18:56.036Z,15.61
2022-10-18T04:26:29.684Z,15.61
2022-10-18T04:34:05.495Z,15.57
2022-10-18T04:41:39.075Z,15.54
2022-10-18T04:49:14.486Z,15.51
2022-10-18T04:56:48.163Z,15.49
2022-10-18T05:04:23.128Z,15.48
2022-10-18T05:11:56.733Z,15.47
2022-10-18T05:19:31.785Z,15.43
2022-10-18T05:27:05.526Z,15.38
2022-10-18T05:34:40.753Z,15.38
2022-10-18T05:42:14.723Z,15.33
2022-10-18T05:49:49.794Z,15.33
2022-10-18T05:57:23.404Z,15.29
2022-10-18T06:04:58.656Z,15.28
2022-10-18T06:12:32.324Z,15.26
2022-10-18T06:20:08.831Z,15.24
2022-10-18T06:27:42.545Z,15.24
2022-10-18T06:35:17.696Z,15.22
2022-10-18T06:43:00.216Z,15.21
2022-10-18T06:50:41.043Z,15.23
2022-10-18T06:58:14.821Z,15.25
2022-10-18T07:05:50.078Z,15.26
2022-10-18T07:13:33.034Z,15.26
2022-10-18T07:21:10.004Z,15.30
2022-10-18T07:28:44.603Z,15.34
2022-10-18T07:36:21.346Z,15.39
2022-10-18T07:43:55.271Z,15.43
2022-10-18T07:51:32.437Z,15.47
2022-10-18T07:59:06.167Z,15.51
2022-10-18T08:06:42.282Z,15.47
2022-10-18T08:14:16.074Z,15.51
2022-10-18T08:21:51.243Z,15.52
2022-10-18T08:29:29.154Z,15.54
2022-10-18T08:37:06.111Z,15.56
2022-10-18T08:44:45.639Z,15.57
2022-10-18T08:52:32.324Z,15.60
2022-10-18T09:00:15.489Z,15.60
2022-10-18T09:08:34.911Z,15.61
2022-10-18T09:16:15.983Z,15.61
2022-10-18T09:23:56.514Z,15.61
2022-10-18T09:31:43.414Z,15.58
2022-10-18T09:39:23.731Z,15.58
2022-10-18T09:47:01.629Z,15.59
2022-10-18T09:54:41.520Z,15.61
2022-10-18T10:02:17.075Z,15.62
2022-10-18T10:09:59.543Z,15.61
2022-10-18T10:17:35.157Z,15.60
2022-10-18T10:25:22.578Z,15.57
2022-10-18T10:32:58.095Z,15.57
2022-10-18T10:40:35.576Z,15.57
2022-10-18T10:48:15.924Z,15.59
2022-10-18T10:55:55.225Z,15.60
2022-10-18T11:03:31.669Z,15.64
2022-10-18T11:11:22.132Z,15.65
2022-10-18T11:18:58.619Z,15.67
2022-10-18T11:26:47.013Z,15.68
2022-10-18T11:34:41.620Z,15.69
2022-10-18T11:42:25.385Z,15.73
2022-10-18T11:50:09.670Z,15.76
2022-10-18T11:57:56.497Z,15.81
2022-10-18T12:05:33.608Z,15.91
2022-10-18T12:13:14.076Z,15.87
2022-10-18T12:20:50.632Z,15.88
2022-10-18T12:28:38.133Z,15.88
2022-10-18T12:36:21.094Z,15.88
2022-10-18T12:44:00.811Z,15.92
2022-10-18T12:51:34.485Z,15.90
2022-10-18T12:59:51.151Z,15.89
2022-10-18T13:07:43.037Z,15.92
2022-10-18T13:15:36.342Z,15.92
2022-10-18T13:23:35.449Z,16.01
2022-10-18T13:31:20.656Z,16.08
2022-10-18T13:39:04.906Z,16.09
2022-10-18T13:47:18.275Z,16.16
2022-10-18T13:55:07.002Z,16.26
2022-10-18T14:03:12.735Z,16.15
2022-10-18T14:11:02.864Z,16.15
2022-10-18T14:18:41.942Z,16.13
2022-10-18T14:26:19.761Z,16.09
2022-10-18T14:33:58.069Z,16.04
2022-10-18T14:41:35.611Z,16.08
2022-10-18T14:49:12.781Z,16.08
2022-10-18T14:56:50.150Z,16.03
2022-10-18T15:04:31.065Z,16.04
2022-10-18T15:12:07.530Z,16.02
2022-10-18T15:19:42.883Z,16.02
2022-10-18T15:27:25.478Z,15.94
2022-10-18T15:35:10.269Z,15.88
2022-10-18T15:42:46.011Z,15.82
2022-10-18T15:50:38.549Z,15.80
2022-10-18T15:58:18.242Z,15.75
2022-10-18T16:05:57.295Z,15.62
2022-10-18T16:13:32.262Z,15.46
2022-10-18T16:21:06.126Z,15.35
2022-10-18T16:28:41.372Z,15.20
2022-10-18T16:36:17.309Z,15.05
2022-10-18T16:43:52.731Z,14.91
2022-10-18T16:51:26.827Z,14.75
2022-10-18T16:59:02.050Z,14.61
2022-10-18T17:06:35.791Z,14.48
2022-10-18T17:14:10.871Z,14.33
2022-10-18T17:21:44.376Z,14.15
2022-10-18T17:29:19.604Z,14.01
2022-10-18T17:36:53.383Z,13.86
2022-10-18T17:44:28.379Z,13.72
2022-10-18T17:52:06.116Z,13.64
2022-10-18T17:59:42.138Z,13.52
2022-10-18T18:07:16.054Z,13.35
2022-10-18T18:14:51.365Z,13.26
2022-10-18T18:22:25.104Z,13.16
2022-10-18T18:30:00.537Z,13.06
2022-10-18T18:37:35.442Z,12.92
2022-10-18T18:45:10.724Z,12.80
2022-10-18T18:52:44.314Z,12.72
2022-10-18T19:00:19.528Z,12.57
2022-10-18T19:07:53.151Z,12.50
2022-10-18T19:15:28.134Z,12.43
2022-10-18T19:23:01.550Z,12.36
2022-10-18T19:30:36.476Z,12.28
2022-10-18T19:38:10.972Z,12.22
2022-10-18T19:45:45.964Z,12.12
2022-10-18T19:53:19.405Z,12.02
2022-10-18T20:00:55.682Z,11.98
2022-10-18T20:08:31.319Z,11.90
2022-10-18T20:16:08.908Z,11.76
2022-10-18T20:23:44.383Z,11.68
2022-10-18T20:31:20.678Z,11.60
2022-10-18T20:38:55.107Z,11.49
2022-10-18T20:46:32.629Z,11.42
2022-10-18T20:54:07.934Z,11.34
2022-10-18T21:01:43.263Z,11.24
2022-10-18T21:09:19.460Z,11.15
2022-10-18T21:16:54.572Z,11.01
2022-10-18T21:24:29.379Z,10.91
2022-10-18T21:32:04.627Z,10.78
2022-10-18T21:39:38.455Z,10.71
2022-10-18T21:47:13.706Z,10.68
2022-10-18T21:54:47.450Z,10.61
2022-10-18T22:02:22.454Z,10.55
2022-10-18T22:09:55.959Z,10.42
2022-10-18T22:17:31.118Z,10.34
2022-10-18T22:25:05.960Z,10.24
2022-10-18T22:32:41.562Z,10.18
2022-10-18T22:40:15.354Z,10.20
2022-10-18T22:47:50.345Z,10.26
2022-10-18T22:55:24.123Z,10.33
2022-10-18T23:02:59.071Z,10.33
2022-10-18T23:10:32.603Z,10.30
2022-10-18T23:18:07.740Z,10.36
2022-10-18T23:25:42.021Z,10.47
2022-10-18T23:33:17.159Z,10.52
2022-10-18T23:40:51.007Z,10.59
2022-10-18T23:48:26.222Z,10.66
2022-10-18T23:56:02.467Z,10.71
